createdAt,value
2022-08-04T00:03:04.900Z,99.90
2022-08-04T00:07:44.066Z,99.90
2022-08-04T00:11:37.842Z,99.90
2022-08-04T00:15:47.213Z,99.90
2022-08-04T00:19:58.916Z,99.90
2022-08-04T00:24:11.980Z,99.90
2022-08-04T00:28:19.003Z,99.90
2022-08-04T00:32:34.503Z,99.90
2022-08-04T00:36:39.184Z,99.90
2022-08-04T00:40:53.646Z,99.90
2022-08-04T00:45:14.302Z,99.90
2022-08-04T00:49:45.366Z,99.90
2022-08-04T00:54:13.528Z,99.90
2022-08-04T00:58:37.007Z,99.90
2022-08-04T01:03:10.298Z,99.90
2022-08-04T01:07:42.071Z,99.90
2022-08-04T01:12:10.384Z,99.90
2022-08-04T01:16:21.169Z,99.90
2022-08-04T01:20:32.794Z,99.90
2022-08-04T01:25:08.400Z,99.90
2022-08-04T01:29:20.156Z,99.90
2022-08-04T01:33:32.531Z,99.90
2022-08-04T01:38:18.278Z,99.90
2022-08-04T01:42:32.225Z,99.90
2022-08-04T01:46:34.542Z,99.90
2022-08-04T01:50:45.581Z,99.90
2022-08-04T01:54:57.389Z,99.90
2022-08-04T01:59:06.729Z,99.90
2022-08-04T02:03:15.514Z,99.90
2022-08-04T02:07:57.282Z,99.90
2022-08-04T02:12:16.183Z,99.90
2022-08-04T02:16:37.262Z,99.90
2022-08-04T02:20:49.323Z,99.90
2022-08-04T02:25:07.358Z,99.90
2022-08-04T02:29:25.280Z,99.90
2022-08-04T02:33:40.749Z,99.90
2022-08-04T02:37:51.841Z,99.90
2022-08-04T02:42:02.809Z,99.90
2022-08-04T02:46:17.672Z,99.90
2022-08-04T02:50:29.037Z,99.90
2022-08-04T02:54:38.335Z,99.90
2022-08-04T02:58:49.661Z,99.90
2022-08-04T03:03:07.611Z,99.90
2022-08-04T03:07:25.544Z,99.90
2022-08-04T03:11:55.275Z,99.90
2022-08-04T03:16:23.839Z,99.90
2022-08-04T03:20:56.684Z,99.90
2022-08-04T03:25:33.315Z,99.90
2022-08-04T03:29:59.600Z,99.90
2022-08-04T03:34:16.833Z,99.90
2022-08-04T03:38:28.490Z,99.90
2022-08-04T03:42:49.200Z,99.90
2022-08-04T03:47:34.433Z,99.90
2022-08-04T03:52:11.580Z,99.90
2022-08-04T03:56:41.657Z,99.90
2022-08-04T04:01:08.449Z,99.90
2022-08-04T04:06:00.269Z,99.90
2022-08-04T04:10:21.395Z,99.90
2022-08-04T04:14:42.505Z,99.90
2022-08-04T04:19:12.087Z,99.90
2022-08-04T04:23:40.283Z,99.90
2022-08-04T04:28:44.425Z,99.90
2022-08-04T04:32:32.024Z,99.90
2022-08-04T04:36:52.823Z,99.90
2022-08-04T04:41:19.851Z,99.90
2022-08-04T04:45:37.337Z,99.90
2022-08-04T04:50:08.027Z,99.90
2022-08-04T04:54:41.436Z,99.90
2022-08-04T04:58:53.363Z,99.90
2022-08-04T05:03:31.465Z,99.90
2022-08-04T05:07:59.751Z,99.90
2022-08-04T05:12:59.282Z,99.90
2022-08-04T05:16:53.863Z,99.90
2022-08-04T05:21:21.617Z,99.90
2022-08-04T05:25:38.594Z,99.90
2022-08-04T05:29:56.215Z,99.90
2022-08-04T05:34:16.694Z,99.90
2022-08-04T05:38:28.394Z,99.90
2022-08-04T05:42:40.307Z,99.90
2022-08-04T05:46:54.943Z,99.90
2022-08-04T05:51:06.320Z,99.90
2022-08-04T05:55:56.620Z,99.90
2022-08-04T05:59:27.401Z,99.90
2022-08-04T06:03:38.144Z,99.90
2022-08-04T06:08:12.470Z,99.90
2022-08-04T06:12:03.796Z,99.90
2022-08-04T06:16:18.099Z,99.90
2022-08-04T06:20:34.588Z,99.90
2022-08-04T06:24:45.330Z,99.90
2022-08-04T06:28:54.919Z,99.90
2022-08-04T06:33:06.187Z,99.90
2022-08-04T06:37:40.921Z,99.90
2022-08-04T06:41:26.700Z,99.90
2022-08-04T06:45:38.399Z,99.90
2022-08-04T06:51:25.333Z,99.90
2022-08-04T06:54:22.006Z,99.90
2022-08-04T06:58:32.648Z,99.90
2022-08-04T07:02:54.057Z,99.90
2022-08-04T07:07:03.623Z,99.90
2022-08-04T07:11:13.801Z,99.90
2022-08-04T07:15:24.048Z,99.90
2022-08-04T07:19:34.972Z,99.90
2022-08-04T07:23:43.682Z,99.90
2022-08-04T07:27:52.439Z,99.90
2022-08-04T07:32:24.146Z,99.90
2022-08-04T07:36:40.690Z,99.90
2022-08-04T07:40:44.478Z,99.90
2022-08-04T07:44:53.098Z,99.90
2022-08-04T07:49:03.367Z,99.90
2022-08-04T07:53:52.901Z,99.90
2022-08-04T07:57:41.566Z,99.90
2022-08-04T08:01:37.702Z,99.90
2022-08-04T08:06:18.185Z,99.90
2022-08-04T08:09:57.078Z,99.90
2022-08-04T08:14:07.778Z,99.90
2022-08-04T08:18:16.585Z,99.90
2022-08-04T08:22:25.859Z,99.90
2022-08-04T08:26:36.216Z,99.90
2022-08-04T08:30:44.887Z,99.90
2022-08-04T08:34:54.102Z,99.90
2022-08-04T08:39:21.581Z,99.90
2022-08-04T08:44:05.181Z,99.90
2022-08-04T08:48:35.245Z,99.90
2022-08-04T08:53:02.784Z,99.90
2022-08-04T08:57:27.794Z,99.90
2022-08-04T09:01:39.578Z,99.90
2022-08-04T09:05:58.608Z,99.90
2022-08-04T09:10:27.811Z,99.90
2022-08-04T09:14:39.943Z,99.90
2022-08-04T09:18:59.278Z,99.90
2022-08-04T09:23:22.833Z,99.90
2022-08-04T09:27:43.416Z,99.60
2022-08-04T09:32:13.268Z,96.90
2022-08-04T09:36:42.316Z,97.90
2022-08-04T09:41:20.874Z,97.00
2022-08-04T09:45:42.714Z,95.30
2022-08-04T09:50:01.623Z,95.60
2022-08-04T09:54:30.619Z,95.40
2022-08-04T09:59:14.089Z,95.40
2022-08-04T10:03:29.467Z,96.20
2022-08-04T10:08:15.864Z,94.20
2022-08-04T10:12:19.024Z,91.80
2022-08-04T10:16:48.375Z,87.60
2022-08-04T10:21:15.382Z,83.50
2022-08-04T10:26:05.913Z,81.90
2022-08-04T10:30:14.006Z,80.70
2022-08-04T10:34:25.233Z,79.90
2022-08-04T10:38:40.979Z,79.70
2022-08-04T10:43:00.153Z,80.80
2022-08-04T10:47:17.600Z,82.40
2022-08-04T10:51:57.636Z,77.50
2022-08-04T10:56:20.255Z,75.80
2022-08-04T11:00:33.317Z,78.10
2022-08-04T11:04:47.825Z,76.40
2022-08-04T11:08:58.965Z,77.20
2022-08-04T11:13:22.049Z,77.10
2022-08-04T11:17:27.156Z,77.40
2022-08-04T11:21:38.690Z,77.20
2022-08-04T11:25:53.476Z,78.70
2022-08-04T11:30:08.087Z,77.10
2022-08-04T11:34:22.621Z,78.70
2022-08-04T11:38:46.249Z,79.30
2022-08-04T11:43:02.532Z,76.50
2022-08-04T11:47:14.262Z,77.70
2022-08-04T11:51:25.430Z,79.90
2022-08-04T11:56:08.036Z,87.90
2022-08-04T11:59:49.022Z,91.20
2022-08-04T12:04:17.167Z,93.30
2022-08-04T12:08:56.267Z,94.60
2022-08-04T12:13:17.281Z,97.20
2022-08-04T12:17:52.554Z,98.80
2022-08-04T12:21:55.839Z,99.40
2022-08-04T12:26:10.759Z,99.80
2022-08-04T12:31:02.499Z,99.90
2022-08-04T12:34:34.527Z,99.10
2022-08-04T12:38:46.221Z,99.50
2022-08-04T12:43:13.029Z,99.90
2022-08-04T12:47:27.555Z,99.60
2022-08-04T12:52:07.937Z,99.20
2022-08-04T12:56:01.431Z,99.90
2022-08-04T13:00:11.831Z,99.90
2022-08-04T13:04:29.393Z,99.90
2022-08-04T13:08:40.722Z,99.90
2022-08-04T13:13:00.177Z,99.90
2022-08-04T13:17:08.855Z,99.80
2022-08-04T13:21:49.466Z,99.80
2022-08-04T13:26:44.551Z,99.90
2022-08-04T13:29:58.919Z,99.60
2022-08-04T13:34:07.567Z,99.90
2022-08-04T13:38:19.685Z,99.90
2022-08-04T13:42:29.560Z,99.90
2022-08-04T13:46:50.576Z,99.90
2022-08-04T13:51:03.557Z,99.00
2022-08-04T13:55:27.434Z,99.30
2022-08-04T13:59:38.256Z,98.10
2022-08-04T14:04:01.970Z,96.00
2022-08-04T14:08:22.770Z,95.40
2022-08-04T14:12:45.685Z,95.50
2022-08-04T14:16:57.526Z,94.30
2022-08-04T14:21:10.731Z,95.30
2022-08-04T14:25:21.071Z,95.10
2022-08-04T14:29:32.781Z,94.90
2022-08-04T14:34:01.281Z,95.10
2022-08-04T14:37:56.270Z,90.80
2022-08-04T14:42:05.434Z,91.20
2022-08-04T14:46:15.695Z,91.50
2022-08-04T14:50:39.335Z,92.40
2022-08-04T14:54:48.036Z,93.50
2022-08-04T14:59:05.079Z,93.90
2022-08-04T15:03:13.873Z,94.60
2022-08-04T15:07:22.615Z,95.50
2022-08-04T15:11:31.859Z,96.70
2022-08-04T15:15:42.210Z,97.30
2022-08-04T15:19:55.785Z,98.10
2022-08-04T15:24:01.339Z,99.90
2022-08-04T15:28:19.200Z,99.90
2022-08-04T15:32:30.283Z,99.90
2022-08-04T15:36:57.246Z,99.90
2022-08-04T15:41:10.699Z,99.90
2022-08-04T15:46:26.491Z,99.90
2022-08-04T15:49:40.301Z,99.90
2022-08-04T15:54:02.199Z,99.90
2022-08-04T15:58:05.287Z,99.90
2022-08-04T16:02:39.925Z,99.90
2022-08-04T16:06:48.788Z,99.90
2022-08-04T16:10:57.404Z,99.90
2022-08-04T16:15:43.316Z,99.90
2022-08-04T16:19:58.825Z,99.90
2022-08-04T16:24:25.281Z,99.90
2022-08-04T16:28:44.238Z,99.90
2022-08-04T16:32:54.772Z,99.90
2022-08-04T16:37:05.913Z,99.90
2022-08-04T16:41:15.986Z,99.90
2022-08-04T16:45:26.347Z,99.90
2022-08-04T16:49:35.682Z,99.90
2022-08-04T16:54:03.054Z,99.90
2022-08-04T16:57:59.790Z,99.90
2022-08-04T17:02:09.856Z,99.90
2022-08-04T17:06:19.041Z,99.90
2022-08-04T17:10:33.651Z,99.90
2022-08-04T17:14:45.026Z,99.90
2022-08-04T17:18:57.785Z,99.90
2022-08-04T17:24:12.404Z,99.90
2022-08-04T17:28:20.220Z,99.90
2022-08-04T17:31:44.563Z,99.90
2022-08-04T17:35:55.902Z,99.90
2022-08-04T17:40:10.307Z,99.90
2022-08-04T17:44:19.218Z,99.90
2022-08-04T17:48:27.829Z,99.90
2022-08-04T17:52:45.423Z,99.90
2022-08-04T17:56:51.610Z,99.90
2022-08-04T18:05:14.487Z,99.90
2022-08-04T18:13:42.637Z,99.90
2022-08-04T18:18:20.566Z,99.90
2022-08-04T18:22:03.533Z,99.90
2022-08-04T18:26:12.773Z,99.90
2022-08-04T18:30:36.513Z,99.90
2022-08-04T18:34:33.780Z,99.90
2022-08-04T18:38:55.557Z,99.90
2022-08-04T18:42:53.008Z,99.90
2022-08-04T18:47:22.381Z,99.90
2022-08-04T18:51:22.875Z,99.90
2022-08-04T18:55:55.154Z,99.90
2022-08-04T18:59:34.239Z,99.90
2022-08-04T19:03:44.662Z,99.90
2022-08-04T19:08:02.444Z,99.90
2022-08-04T19:16:20.876Z,99.90
2022-08-04T19:20:27.220Z,99.90
2022-08-04T19:24:35.907Z,99.90
2022-08-04T19:28:47.435Z,99.90
2022-08-04T19:32:56.071Z,99.90
2022-08-04T19:37:04.665Z,99.90
2022-08-04T19:41:14.381Z,99.90
2022-08-04T19:45:40.140Z,99.90
2022-08-04T19:50:04.881Z,99.90
2022-08-04T19:53:44.336Z,99.90
2022-08-04T19:57:54.671Z,99.90
2022-08-04T20:02:03.302Z,99.90
2022-08-04T20:06:12.028Z,99.90
2022-08-04T20:10:23.902Z,99.90
2022-08-04T20:14:33.530Z,99.90
2022-08-04T20:18:55.499Z,99.90
2022-08-04T20:22:53.399Z,99.90
2022-08-04T20:31:18.480Z,99.90
2022-08-04T20:35:26.782Z,99.90
2022-08-04T20:39:35.671Z,99.90
2022-08-04T20:43:44.431Z,99.90
2022-08-04T20:47:54.686Z,99.90
2022-08-04T20:56:19.005Z,99.90
2022-08-04T21:00:30.281Z,99.90
2022-08-04T21:04:46.411Z,99.90
2022-08-04T21:08:57.093Z,99.90
2022-08-04T21:13:05.417Z,99.90
2022-08-04T21:17:19.929Z,99.90
2022-08-04T21:25:42.989Z,99.90
2022-08-04T21:29:46.982Z,99.90
2022-08-04T21:33:57.237Z,99.90
2022-08-04T21:38:17.356Z,99.90
2022-08-04T21:42:28.830Z,99.90
2022-08-04T21:46:27.144Z,99.90
2022-08-04T21:50:37.413Z,99.90
2022-08-04T21:54:46.114Z,99.90
2022-08-04T21:58:58.026Z,99.90
2022-08-04T22:03:06.707Z,99.90
2022-08-04T22:07:17.542Z,99.90
2022-08-04T22:11:49.244Z,99.90
2022-08-04T22:19:55.367Z,99.90
2022-08-04T22:24:04.019Z,99.90
2022-08-04T22:28:12.904Z,99.90
2022-08-04T22:32:23.158Z,99.90
2022-08-04T22:36:31.731Z,99.90
2022-08-04T22:40:41.753Z,99.90
2022-08-04T22:44:52.104Z,99.90
2022-08-04T22:49:00.790Z,99.90
2022-08-04T22:53:09.454Z,99.90
2022-08-04T22:57:19.725Z,99.90
2022-08-04T23:01:57.988Z,99.90
2022-08-04T23:05:40.420Z,99.90
2022-08-04T23:09:51.672Z,99.90
2022-08-04T23:14:00.354Z,99.90
2022-08-04T23:18:09.144Z,99.90
2022-08-04T23:22:19.255Z,99.90
2022-08-04T23:26:30.065Z,99.90
2022-08-04T23:30:38.691Z,99.90
2022-08-04T23:34:48.953Z,99.90
2022-08-04T23:39:06.250Z,99.90
2022-08-04T23:43:17.881Z,99.90
2022-08-04T23:48:19.257Z,99.90
2022-08-04T23:51:35.312Z,99.90
2022-08-04T23:55:44.283Z,99.90
2022-08-04T23:59:55.623Z,99.90
